Time;durP1;ratioP1;P1;durP2;ratioP2;P2;SDS_P1;SDS_P2;PMS_P1;PMS_P2;Temp;Humidity;BMP_temperature;BMP_pressure;BME280_temperature;BME280_humidity;BME280_pressure;Samples;Min_cycle;Max_cycle;Signal;HPM_P1;HPM_P2
2022/06/30 00:01:44;;;;;;;8.75;3.47;;;;;;;20.39;60.27;101147.84;5077637;27;97791;-35
2022/06/30 00:04:10;;;;;;;6.47;3.15;;;;;;;20.33;60.15;101140.19;5077831;27;99307;-35
2022/06/30 00:06:35;;;;;;;9.15;3.85;;;;;;;20.32;59.67;101139.34;5078341;27;96681;-35
2022/06/30 00:09:01;;;;;;;8.80;3.47;;;;;;;20.21;60.21;101117.50;5077278;27;96785;-35
2022/06/30 00:11:26;;;;;;;9.75;3.28;;;;;;;20.27;59.25;101124.31;5075127;27;101002;-35
2022/06/30 00:13:52;;;;;;;8.02;4.22;;;;;;;20.26;60.13;101126.19;5076966;27;97252;-35
2022/06/30 00:16:18;;;;;;;7.65;3.20;;;;;;;20.34;59.69;101141.94;5077110;27;96589;-35
2022/06/30 00:18:45;;;;;;;8.27;3.90;;;;;;;20.25;60.41;101127.19;5077304;27;96802;-35
2022/06/30 00:21:11;;;;;;;7.07;4.03;;;;;;;20.24;59.90;101122.72;5075146;27;101435;-35
2022/06/30 00:23:36;;;;;;;8.32;3.85;;;;;;;20.27;60.74;101127.91;5074955;27;100794;-35
2022/06/30 00:26:02;;;;;;;7.07;3.58;;;;;;;20.21;60.45;101122.16;5076131;27;96640;-35
2022/06/30 00:28:28;;;;;;;7.63;3.55;;;;;;;20.18;60.70;101130.72;5075277;27;96951;-35
2022/06/30 00:30:53;;;;;;;5.65;3.70;;;;;;;20.19;60.40;101125.06;5076571;27;97412;-35
2022/06/30 00:33:19;;;;;;;5.72;3.85;;;;;;;20.15;60.84;101118.97;5074892;27;101176;-35
2022/06/30 00:35:45;;;;;;;9.18;5.05;;;;;;;20.14;60.79;101125.53;5076902;27;96557;-35
2022/06/30 00:38:11;;;;;;;9.65;5.18;;;;;;;20.09;60.67;101124.22;5075221;27;96671;-35
2022/06/30 00:40:37;;;;;;;7.45;4.60;;;;;;;20.10;61.51;101117.72;5076099;27;99491;-35
2022/06/30 00:43:07;;;;;;;7.80;4.07;;;;;;;20.09;61.91;101113.22;5076473;27;97828;-35
2022/06/30 00:45:38;;;;;;;8.10;4.50;;;;;;;20.04;61.53;101113.66;5075349;27;96629;-35
2022/06/30 00:48:04;;;;;;;7.85;4.50;;;;;;;20.06;62.36;101117.13;5075049;27;96738;-35
2022/06/30 00:50:29;;;;;;;7.22;4.40;;;;;;;20.01;62.19;101107.59;5075490;27;97423;-35
2022/06/30 00:52:56;;;;;;;8.52;4.97;;;;;;;20.02;61.72;101107.47;5075904;27;97292;-35
2022/06/30 00:55:22;;;;;;;8.88;5.15;;;;;;;20.03;61.33;101102.81;5074790;27;96513;-35
2022/06/30 00:57:48;;;;;;;9.50;4.95;;;;;;;20.04;61.34;101101.78;5074776;27;96819;-35
2022/06/30 01:00:15;;;;;;;9.82;4.97;;;;;;;20.05;61.63;101104.41;5074493;27;100513;-35
2022/06/30 01:02:40;;;;;;;9.40;5.40;;;;;;;19.99;62.22;101098.63;5074486;27;100581;-35
2022/06/30 01:05:07;;;;;;;11.73;5.10;;;;;;;19.98;61.42;101092.28;5074129;27;96568;-35
2022/06/30 01:07:34;;;;;;;10.68;5.57;;;;;;;19.96;61.63;101097.06;5033975;27;1137330;-35
2022/06/30 01:12:45;;;;;;;8.90;5.03;;;;;;;19.87;62.07;101087.81;5077530;27;96936;-35
2022/06/30 01:15:16;;;;;;;7.90;4.95;;;;;;;19.88;62.71;101105.19;5075582;27;96564;-35
2022/06/30 01:17:43;;;;;;;11.35;4.90;;;;;;;19.77;62.39;101119.97;5075722;27;96569;-35
2022/06/30 01:20:09;;;;;;;8.45;5.18;;;;;;;19.80;64.40;101141.66;5075108;27;101066;-35
2022/06/30 01:22:35;;;;;;;8.65;4.38;;;;;;;19.76;63.21;101150.34;5075233;27;101875;-35
2022/06/30 01:25:00;;;;;;;9.52;5.05;;;;;;;19.75;63.18;101152.22;5077107;27;96679;-35
2022/06/30 01:27:26;;;;;;;12.02;5.55;;;;;;;19.73;62.48;101143.25;5077183;27;96780;-35
2022/06/30 01:29:52;;;;;;;8.65;4.78;;;;;;;19.73;62.69;101146.00;5076854;27;97383;-35
2022/06/30 01:32:17;;;;;;;8.70;5.10;;;;;;;19.75;62.83;101130.22;5075186;27;100675;-35
2022/06/30 01:34:43;;;;;;;6.95;4.07;;;;;;;19.74;63.11;101139.50;5076799;27;96655;-35
2022/06/30 01:37:09;;;;;;;9.23;4.22;;;;;;;19.75;62.94;101154.97;5075324;27;96850;-35
2022/06/30 01:39:34;;;;;;;7.13;4.10;;;;;;;19.75;62.61;101143.13;5075912;27;101016;-35
2022/06/30 01:42:01;;;;;;;8.52;4.00;;;;;;;19.79;62.87;101159.19;5076548;27;97727;-35
2022/06/30 01:44:26;;;;;;;6.57;3.88;;;;;;;19.73;63.31;101163.38;5076557;27;96558;-35
2022/06/30 01:46:52;;;;;;;8.10;4.65;;;;;;;19.63;63.16;101151.47;5077085;27;96786;-35
2022/06/30 01:49:18;;;;;;;5.63;3.72;;;;;;;19.66;62.99;101144.81;5075881;27;99630;-35
2022/06/30 01:51:43;;;;;;;6.20;3.83;;;;;;;19.67;63.71;101147.44;5076374;27;97782;-35
2022/06/30 01:54:09;;;;;;;6.93;3.88;;;;;;;19.66;63.36;101167.69;5076815;27;96610;-35
2022/06/30 01:56:36;;;;;;;12.55;4.63;;;;;;;19.66;63.37;101153.06;5075463;27;96861;-35
2022/06/30 01:59:02;;;;;;;10.48;3.90;;;;;;;19.67;63.70;101141.06;5074804;27;100888;-35
2022/06/30 02:01:27;;;;;;;5.72;3.70;;;;;;;19.60;63.52;101168.28;5074540;27;100753;-35
2022/06/30 02:03:53;;;;;;;6.30;3.92;;;;;;;19.66;63.35;101162.22;5075847;27;96612;-35
2022/06/30 02:06:18;;;;;;;8.30;3.92;;;;;;;19.66;63.56;101155.81;5076526;27;96879;-35
2022/06/30 02:08:43;;;;;;;7.88;3.85;;;;;;;19.57;64.74;101151.19;5076169;27;97290;-35
2022/06/30 02:11:09;;;;;;;9.38;3.80;;;;;;;19.58;64.12;101148.31;5076072;27;97270;-35
2022/06/30 02:13:34;;;;;;;5.88;3.63;;;;;;;19.56;63.89;101149.47;5076477;27;96587;-35
2022/06/30 02:16:00;;;;;;;7.35;3.58;;;;;;;19.55;64.04;101151.34;5075268;27;96722;-35
2022/06/30 02:18:25;;;;;;;9.25;3.65;;;;;;;19.56;63.52;101149.47;5075666;27;106230;-35
2022/06/30 02:20:50;;;;;;;8.98;3.90;;;;;;;19.58;63.54;101153.81;5076327;27;98004;-35
2022/06/30 02:23:16;;;;;;;6.70;3.60;;;;;;;19.51;63.63;101147.16;5076166;27;97077;-35
2022/06/30 02:25:42;;;;;;;9.82;3.85;;;;;;;19.47;63.74;101149.34;5076356;27;96936;-35
2022/06/30 02:28:08;;;;;;;5.50;3.25;;;;;;;19.52;64.51;101149.78;5075273;27;97992;-35
2022/06/30 02:30:34;;;;;;;6.30;3.85;;;;;;;19.48;64.41;101151.06;5075792;27;98029;-35
2022/06/30 02:33:00;;;;;;;6.70;3.60;;;;;;;19.45;64.15;101148.63;5074192;27;96632;-35
2022/06/30 02:35:25;;;;;;;11.35;3.70;;;;;;;19.46;63.92;101139.34;5076075;27;96709;-35
2022/06/30 02:37:59;;;;;;;10.13;3.50;;;;;;;19.41;64.49;101122.44;5075656;27;97286;-35
2022/06/30 02:40:25;;;;;;;6.82;3.60;;;;;;;19.43;64.17;101133.28;5075575;27;97861;-35
2022/06/30 02:42:50;;;;;;;6.70;3.33;;;;;;;19.40;64.02;101133.56;5076006;27;96749;-35
2022/06/30 02:45:15;;;;;;;7.30;3.63;;;;;;;19.32;64.46;101128.78;5075690;27;105431;-35
2022/06/30 02:47:43;;;;;;;5.75;3.53;;;;;;;19.26;65.15;101132.13;5075085;27;99276;-35
2022/06/30 02:50:11;;;;;;;7.45;3.80;;;;;;;19.25;65.08;101147.72;5073771;27;100845;-35
2022/06/30 02:52:37;;;;;;;6.13;3.40;;;;;;;19.16;65.55;101151.31;5073687;27;96603;-35
2022/06/30 02:55:04;;;;;;;5.50;2.95;;;;;;;19.09;64.85;101137.31;5074315;27;96732;-35
2022/06/30 02:57:29;;;;;;;5.38;3.00;;;;;;;19.13;65.28;101148.00;5075143;27;99633;-35
2022/06/30 02:59:55;;;;;;;8.10;3.30;;;;;;;19.05;65.30;101135.88;5075088;27;97922;-35
2022/06/30 03:02:20;;;;;;;6.78;3.60;;;;;;;19.06;65.45;101136.72;5075416;27;96729;-35
2022/06/30 03:04:46;;;;;;;5.25;3.22;;;;;;;19.09;66.09;101128.19;5075622;27;96749;-35
2022/06/30 03:07:11;;;;;;;7.82;3.50;;;;;;;19.03;64.72;101115.91;5074794;27;97927;-35
2022/06/30 03:09:37;;;;;;;6.20;3.45;;;;;;;19.07;65.00;101117.38;5075472;27;102286;-35
2022/06/30 03:12:02;;;;;;;5.68;2.72;;;;;;;19.04;65.05;101114.91;5075604;27;96589;-35
2022/06/30 03:14:28;;;;;;;7.97;3.65;;;;;;;19.03;64.80;101118.66;5075632;27;96774;-35
2022/06/30 03:17:00;;;;;;;5.15;3.10;;;;;;;19.00;65.67;101124.44;5073191;27;100955;-35
2022/06/30 03:19:25;;;;;;;6.72;3.15;;;;;;;19.01;65.35;101131.66;5073720;27;98818;-35
2022/06/30 03:22:06;;;;;;;6.18;3.20;;;;;;;18.99;66.09;101133.69;5075194;27;96558;-35
2022/06/30 03:24:31;;;;;;;5.30;2.95;;;;;;;18.94;65.94;101115.91;5075706;27;96752;-35
2022/06/30 03:26:56;;;;;;;6.57;3.22;;;;;;;18.94;64.88;101115.91;5074802;27;99295;-35
2022/06/30 03:29:22;;;;;;;4.90;3.25;;;;;;;18.93;65.17;101117.78;5078035;27;108561;-35
2022/06/30 03:31:47;;;;;;;5.05;2.88;;;;;;;18.93;65.54;101120.53;5079112;27;96737;-35
2022/06/30 03:34:12;;;;;;;5.53;2.72;;;;;;;18.85;65.39;101113.03;5079185;27;96910;-35
2022/06/30 03:36:38;;;;;;;7.72;3.42;;;;;;;18.86;66.21;101122.13;5078576;27;100781;-35
2022/06/30 03:39:04;;;;;;;7.10;3.05;;;;;;;18.81;66.05;101116.19;5078484;27;97739;-35
2022/06/30 03:41:29;;;;;;;5.93;3.05;;;;;;;18.79;66.34;101119.06;5078363;27;96780;-35
2022/06/30 03:43:55;;;;;;;5.30;2.53;;;;;;;18.80;66.38;101125.41;5078518;27;96741;-35
2022/06/30 03:46:20;;;;;;;6.18;3.22;;;;;;;18.70;65.92;101113.50;5078291;27;100218;-35
2022/06/30 03:48:45;;;;;;;8.50;2.88;;;;;;;18.70;65.91;101119.88;5078298;27;98324;-35
2022/06/30 03:51:11;;;;;;;4.60;2.75;;;;;;;18.68;66.61;101125.47;5078510;27;96608;-35
2022/06/30 03:53:37;;;;;;;4.20;2.42;;;;;;;18.60;66.77;101122.59;5078342;27;96903;-35
2022/06/30 03:56:02;;;;;;;5.65;2.50;;;;;;;18.61;66.56;101126.19;5076645;27;100975;-35
2022/06/30 03:58:28;;;;;;;5.63;2.60;;;;;;;18.60;66.64;101130.81;5078379;27;97821;-35
2022/06/30 04:00:53;;;;;;;5.90;2.55;;;;;;;18.61;66.29;101124.31;5078802;27;96512;-35
2022/06/30 04:03:18;;;;;;;4.65;2.60;;;;;;;18.62;66.25;101116.97;5078408;27;96855;-35
2022/06/30 04:05:44;;;;;;;3.88;2.40;;;;;;;18.53;66.97;101121.41;5077645;27;97369;-35
2022/06/30 04:08:10;;;;;;;5.20;2.38;;;;;;;18.50;66.22;101135.41;5077720;27;99902;-35
2022/06/30 04:10:36;;;;;;;3.63;2.40;;;;;;;18.48;66.82;101148.41;5078339;27;96572;-35
2022/06/30 04:13:01;;;;;;;4.85;2.15;;;;;;;18.48;66.36;101177.72;5078238;27;96657;-35
2022/06/30 04:15:27;;;;;;;4.05;2.17;;;;;;;18.45;66.40;101149.53;5077765;27;99219;-35
2022/06/30 04:17:53;;;;;;;3.72;1.88;;;;;;;18.50;66.44;101149.13;5076441;27;100734;-35
2022/06/30 04:20:18;;;;;;;4.18;1.83;;;;;;;18.51;67.54;101161.81;5078033;27;96653;-35
2022/06/30 04:22:48;;;;;;;2.45;1.25;;;;;;;18.56;65.69;101178.75;5078482;27;96736;-35
2022/06/30 04:25:15;;;;;;;1.95;1.23;;;;;;;18.57;65.76;101166.78;5076279;27;101026;-35
2022/06/30 04:27:48;;;;;;;1.92;1.15;;;;;;;18.60;65.81;101168.38;5076110;27;100982;-35
2022/06/30 04:30:14;;;;;;;1.83;1.17;;;;;;;18.56;65.34;101167.75;5076006;27;96650;-35
2022/06/30 04:32:41;;;;;;;4.63;1.38;;;;;;;18.53;65.52;101170.78;5076196;27;96602;-35
2022/06/30 04:35:09;;;;;;;2.17;1.15;;;;;;;18.59;66.19;101194.94;5076153;27;101198;-35
2022/06/30 04:37:35;;;;;;;2.17;1.30;;;;;;;18.53;66.38;101200.09;5075877;27;100738;-35
2022/06/30 04:42:45;;;;;;;3.08;1.20;;;;;;;18.54;65.98;101185.38;5075640;27;96643;-35
2022/06/30 04:45:10;;;;;;;4.78;1.77;;;;;;;18.62;66.35;101197.41;5077447;27;97886;-35
2022/06/30 04:47:36;;;;;;;5.53;2.13;;;;;;;18.64;66.67;101198.13;5077648;27;97903;-35
2022/06/30 04:50:06;;;;;;;4.18;2.10;;;;;;;18.65;67.20;101199.00;5076044;27;96792;-35
2022/06/30 04:52:32;;;;;;;2.45;1.63;;;;;;;18.68;66.35;101205.06;5076026;27;96853;-35
2022/06/30 04:54:57;;;;;;;5.95;1.67;;;;;;;18.70;66.39;101206.81;5076663;27;99362;-35
2022/06/30 04:57:22;;;;;;;4.43;1.77;;;;;;;18.67;66.31;101206.09;5077200;27;97857;-35
2022/06/30 04:59:48;;;;;;;4.22;1.73;;;;;;;18.58;67.13;101201.44;5077788;27;96567;-35
2022/06/30 05:02:13;;;;;;;4.25;1.63;;;;;;;18.56;67.69;101211.66;5076727;27;107919;-35
2022/06/30 05:04:38;;;;;;;3.63;2.05;;;;;;;18.52;67.21;101212.06;5077104;27;97480;-35
2022/06/30 05:07:04;;;;;;;5.38;2.13;;;;;;;18.58;68.02;101222.50;5076642;27;97282;-35
2022/06/30 05:09:29;;;;;;;3.83;1.65;;;;;;;18.62;66.86;101221.25;5075970;27;96676;-35
2022/06/30 05:11:55;;;;;;;4.68;1.20;;;;;;;18.64;67.31;101208.25;5077110;27;104394;-35
2022/06/30 05:14:20;;;;;;;5.30;1.23;;;;;;;18.73;66.80;101217.50;5076877;27;97909;-35
2022/06/30 05:16:45;;;;;;;5.63;1.17;;;;;;;18.75;67.93;101215.50;5076779;27;106331;-35
2022/06/30 05:19:11;;;;;;;4.45;1.10;;;;;;;18.83;67.09;101223.94;5076312;27;98285;-35
2022/06/30 05:21:36;;;;;;;3.15;1.05;;;;;;;18.84;67.16;101220.19;5076829;27;96817;-35
2022/06/30 05:26:46;;;;;;;1.42;0.77;;;;;;;18.92;66.65;101227.72;5075195;27;96907;-35
2022/06/30 05:29:11;;;;;;;2.80;1.05;;;;;;;18.82;66.76;101216.72;5076643;27;102250;-35
2022/06/30 05:31:36;;;;;;;1.98;1.13;;;;;;;18.85;66.55;101219.19;5076887;27;97526;-34
2022/06/30 05:34:02;;;;;;;2.50;1.02;;;;;;;18.85;66.98;101211.84;5076277;27;97885;-35
2022/06/30 05:36:27;;;;;;;4.85;1.40;;;;;;;18.89;67.17;101215.16;5076442;27;98935;-35
2022/06/30 05:38:52;;;;;;;2.40;0.85;;;;;;;18.88;66.28;101203.31;5076542;27;97454;-35
2022/06/30 05:41:18;;;;;;;2.65;1.10;;;;;;;18.95;66.58;101200.88;5077095;27;96796;-35
2022/06/30 05:43:43;;;;;;;5.63;1.17;;;;;;;18.96;66.51;101199.84;5075993;27;97398;-34
2022/06/30 05:46:08;;;;;;;2.22;1.02;;;;;;;19.08;66.30;101200.59;5076586;27;97967;-35
2022/06/30 05:48:34;;;;;;;1.83;0.88;;;;;;;19.11;66.11;101192.06;5076606;27;96636;-35
2022/06/30 05:50:59;;;;;;;3.95;1.10;;;;;;;19.19;65.94;101191.41;5076286;27;96722;-35
2022/06/30 05:53:24;;;;;;;3.55;0.82;;;;;;;19.24;65.93;101194.56;5076042;27;99758;-35
2022/06/30 05:55:50;;;;;;;1.50;0.70;;;;;;;19.27;65.51;101208.88;5076222;27;99142;-34
2022/06/30 05:58:17;;;;;;;3.88;0.80;;;;;;;19.23;65.61;101190.06;5076938;27;96548;-35
2022/06/30 06:00:42;;;;;;;4.47;0.82;;;;;;;19.34;65.60;101203.69;5075428;27;96834;-35
2022/06/30 06:03:08;;;;;;;1.63;0.80;;;;;;;19.39;65.85;101204.13;5076026;27;97895;-35
2022/06/30 06:05:33;;;;;;;2.88;1.08;;;;;;;19.44;65.66;101207.31;5075909;27;98704;-35
2022/06/30 06:08:06;;;;;;;2.78;0.70;;;;;;;19.43;66.39;101189.09;5075125;27;102747;-35
2022/06/30 06:10:32;;;;;;;1.08;0.73;;;;;;;19.55;66.53;101199.97;5074964;27;96848;-35
2022/06/30 06:12:57;;;;;;;3.47;0.77;;;;;;;19.59;65.56;101202.25;5076062;27;97621;-35
2022/06/30 06:15:22;;;;;;;3.90;0.88;;;;;;;19.68;65.18;101198.66;5075945;27;105649;-35
2022/06/30 06:17:48;;;;;;;2.35;0.93;;;;;;;19.76;65.01;101205.31;5076240;27;96593;-35
2022/06/30 06:20:16;;;;;;;1.52;0.93;;;;;;;19.88;64.80;101218.78;5076088;27;96825;-35
2022/06/30 06:22:42;;;;;;;3.00;1.05;;;;;;;19.94;65.52;101215.44;5074232;27;100875;-35
2022/06/30 06:25:08;;;;;;;1.73;0.80;;;;;;;20.05;64.58;101210.81;5074688;27;100793;-35
2022/06/30 06:27:34;;;;;;;2.65;1.00;;;;;;;20.10;64.10;101200.22;5074536;27;96703;-35
2022/06/30 06:30:00;;;;;;;3.90;0.90;;;;;;;20.19;64.13;101195.69;5076004;27;97869;-35
2022/06/30 06:32:26;;;;;;;3.63;1.08;;;;;;;20.31;63.89;101213.78;5073567;27;101076;-35
2022/06/30 06:34:51;;;;;;;2.67;0.95;;;;;;;20.43;63.58;101225.50;5075564;27;98161;-35
2022/06/30 06:37:16;;;;;;;3.70;0.95;;;;;;;20.51;63.23;101222.84;5075705;27;101480;-35
2022/06/30 06:39:42;;;;;;;1.58;0.93;;;;;;;20.58;63.13;101232.28;5075949;27;96764;-35
2022/06/30 06:42:07;;;;;;;3.60;0.93;;;;;;;20.68;62.71;101229.47;5075534;27;97990;-35
2022/06/30 06:44:32;;;;;;;2.47;0.73;;;;;;;20.74;62.31;101235.25;5075604;27;97666;-35
2022/06/30 06:46:58;;;;;;;2.70;0.75;;;;;;;20.82;62.35;101233.63;5075895;27;96505;-34
2022/06/30 06:49:23;;;;;;;2.25;0.57;;;;;;;20.95;62.11;101228.63;5075213;27;102729;-35
2022/06/30 06:51:48;;;;;;;3.95;1.08;;;;;;;21.03;61.74;101230.63;5075635;27;97644;-35
2022/06/30 06:54:14;;;;;;;1.30;0.60;;;;;;;21.15;61.53;101223.88;5075126;27;109416;-35
2022/06/30 06:56:39;;;;;;;2.03;0.93;;;;;;;21.20;60.69;101233.41;5074932;27;98202;-35
2022/06/30 06:59:04;;;;;;;2.75;0.88;;;;;;;21.37;60.65;101231.69;5075626;27;96771;-35
2022/06/30 07:01:30;;;;;;;2.40;1.05;;;;;;;21.41;60.35;101229.56;5074504;27;98370;-35
2022/06/30 07:03:55;;;;;;;3.17;1.17;;;;;;;21.45;60.24;101239.22;5074751;27;99235;-35
2022/06/30 07:06:21;;;;;;;4.05;0.88;;;;;;;21.58;59.88;101247.97;5075303;27;96592;-35
2022/06/30 07:08:46;;;;;;;1.60;0.73;;;;;;;21.59;59.19;101246.09;5075257;27;96787;-35
2022/06/30 07:11:12;;;;;;;2.47;0.93;;;;;;;21.62;58.97;101240.28;5074931;27;99175;-35
2022/06/30 07:13:38;;;;;;;3.35;0.70;;;;;;;21.57;59.04;101243.50;5075397;27;99664;-35
2022/06/30 07:16:03;;;;;;;2.08;0.80;;;;;;;21.61;59.54;101250.41;5075567;27;96678;-35
2022/06/30 07:18:29;;;;;;;3.10;0.70;;;;;;;21.60;59.13;101242.31;5075061;27;96862;-35
2022/06/30 07:20:54;;;;;;;1.60;0.70;;;;;;;21.67;59.24;101254.47;5074590;27;97594;-35
2022/06/30 07:23:20;;;;;;;0.95;0.65;;;;;;;21.77;59.20;101249.72;5074780;27;99450;-35
2022/06/30 07:25:46;;;;;;;2.45;0.75;;;;;;;21.78;58.26;101248.69;5075239;27;96489;-35
2022/06/30 07:28:11;;;;;;;4.82;0.80;;;;;;;21.87;58.42;101251.53;5073929;27;96814;-35
2022/06/30 07:30:37;;;;;;;1.40;0.50;;;;;;;21.98;57.77;101251.31;5074892;27;97912;-35
2022/06/30 07:33:02;;;;;;;2.97;0.68;;;;;;;22.05;57.75;101256.00;5074378;27;98038;-35
2022/06/30 07:35:28;;;;;;;2.00;0.82;;;;;;;22.16;57.26;101254.03;5075278;27;96505;-35
2022/06/30 07:37:53;;;;;;;1.25;0.70;;;;;;;22.30;57.50;101250.72;5075718;27;96802;-35
2022/06/30 07:40:19;;;;;;;1.85;0.77;;;;;;;22.40;56.98;101259.75;5074624;27;98796;-35
2022/06/30 07:42:44;;;;;;;2.42;1.00;;;;;;;22.53;56.39;101255.72;5074332;27;109671;-35
2022/06/30 07:45:10;;;;;;;2.20;0.50;;;;;;;22.65;56.31;101263.56;5074772;27;96631;-35
2022/06/30 07:47:39;;;;;;;3.03;0.60;;;;;;;22.77;55.93;101272.44;5073591;27;97330;-35
2022/06/30 07:50:05;;;;;;;2.15;1.00;;;;;;;22.90;56.02;101270.06;5072985;27;101165;-35
2022/06/30 07:52:30;;;;;;;2.40;0.60;;;;;;;22.94;55.11;101267.00;5073218;27;101278;-35
2022/06/30 07:54:56;;;;;;;1.00;0.57;;;;;;;23.04;55.16;101276.91;5074901;27;96752;-36
2022/06/30 07:57:21;;;;;;;4.45;1.23;;;;;;;23.08;54.90;101272.78;5075158;27;96737;-35
2022/06/30 07:59:47;;;;;;;2.08;1.05;;;;;;;23.20;55.39;101273.34;5074589;27;97464;-35
2022/06/30 08:02:12;;;;;;;3.03;0.85;;;;;;;23.31;54.92;101263.88;5074362;27;99085;-35
2022/06/30 08:04:39;;;;;;;1.27;0.65;;;;;;;23.37;54.63;101268.75;5073465;27;96752;-35
2022/06/30 08:07:05;;;;;;;0.80;0.55;;;;;;;23.53;54.17;101279.88;5073157;27;96830;-35
2022/06/30 08:09:31;;;;;;;4.15;0.90;;;;;;;23.68;54.43;101288.34;5073991;27;97951;-35
2022/06/30 08:11:56;;;;;;;3.65;0.80;;;;;;;23.78;53.89;101282.69;5072838;27;100708;-35
2022/06/30 08:14:22;;;;;;;1.33;0.77;;;;;;;23.81;53.77;101284.25;5076486;27;96695;-35
2022/06/30 08:16:48;;;;;;;1.23;0.77;;;;;;;23.96;53.91;101288.09;5076673;27;96835;-35
2022/06/30 08:19:14;;;;;;;4.00;0.60;;;;;;;24.02;53.80;101281.88;5078166;27;96734;-35
2022/06/30 08:21:39;;;;;;;3.25;0.70;;;;;;;23.94;52.75;101279.09;5077873;27;97692;-35
2022/06/30 08:24:05;;;;;;;2.13;0.90;;;;;;;23.79;53.83;101281.69;5077948;27;96502;-35
2022/06/30 08:26:31;;;;;;;2.65;0.80;;;;;;;23.93;53.42;101278.25;5078565;27;96785;-35
2022/06/30 08:28:57;;;;;;;1.00;0.60;;;;;;;24.11;53.49;101283.59;5076206;27;100828;-35
2022/06/30 08:31:22;;;;;;;3.03;1.48;;;;;;;24.24;52.55;101271.13;5077832;27;97247;-35
2022/06/30 08:33:50;;;;;;;2.47;0.93;;;;;;;24.34;53.17;101258.00;5077285;27;96632;-35
2022/06/30 08:36:16;;;;;;;3.78;0.70;;;;;;;24.45;51.97;101271.47;5077604;27;96902;-35
2022/06/30 08:38:41;;;;;;;1.70;0.70;;;;;;;24.42;52.08;101269.06;5076011;27;100940;-35
2022/06/30 08:43:53;;;;;;;9.35;1.10;;;;;;;24.59;52.53;101278.22;5077744;27;96607;-35
2022/06/30 08:46:22;;;;;;;2.17;0.90;;;;;;;24.72;52.11;101270.25;5076291;27;96871;-35
2022/06/30 08:48:48;;;;;;;3.95;0.90;;;;;;;24.84;50.87;101264.31;5075736;27;102830;-35
2022/06/30 08:51:17;;;;;;;2.45;0.88;;;;;;;24.85;50.86;101269.69;5077579;27;97824;-35
2022/06/30 08:53:50;;;;;;;1.20;0.60;;;;;;;24.96;51.47;101274.84;5076072;27;96762;-35
2022/06/30 08:56:17;;;;;;;2.75;0.63;;;;;;;25.05;51.47;101281.25;5077412;27;96770;-35
2022/06/30 08:58:44;;;;;;;1.20;0.80;;;;;;;25.00;51.57;101272.56;5075219;27;100912;-35
2022/06/30 09:01:09;;;;;;;2.83;1.15;;;;;;;25.01;51.37;101288.19;5075771;27;100941;-35
2022/06/30 09:03:37;;;;;;;1.80;0.88;;;;;;;24.99;51.42;101277.25;5075934;27;96574;-35
2022/06/30 09:06:03;;;;;;;2.15;0.70;;;;;;;25.09;51.12;101278.97;5076085;27;96794;-35
2022/06/30 09:08:29;;;;;;;1.35;0.80;;;;;;;25.21;50.58;101285.88;5074973;27;100914;-34
2022/06/30 09:10:55;;;;;;;2.70;0.80;;;;;;;25.31;50.75;101283.72;5076752;27;99143;-35
2022/06/30 09:13:22;;;;;;;2.38;0.73;;;;;;;25.35;50.37;101274.00;5075919;27;96529;-35
2022/06/30 09:15:49;;;;;;;2.15;0.73;;;;;;;25.34;50.91;101271.44;5076081;27;96859;-35
2022/06/30 09:18:28;;;;;;;3.10;0.80;;;;;;;25.28;49.33;101272.16;5075503;27;100930;-35
2022/06/30 09:20:54;;;;;;;1.92;0.80;;;;;;;25.10;50.59;101287.09;5075517;27;100984;-35
2022/06/30 09:23:24;;;;;;;3.13;0.80;;;;;;;24.94;50.88;101292.72;5075104;27;96609;-35
2022/06/30 09:25:54;;;;;;;2.58;1.00;;;;;;;25.01;50.62;101299.28;5074983;27;96934;-35
2022/06/30 09:28:55;;;;;;;3.22;1.02;;;;;;;25.19;50.12;101293.50;5076171;27;97862;-35
2022/06/30 09:31:35;;;;;;;3.47;0.82;;;;;;;25.42;48.87;101286.13;5076464;27;99021;-35
2022/06/30 09:34:21;;;;;;;2.17;0.75;;;;;;;25.54;49.09;101283.81;5074540;27;96805;-35
2022/06/30 09:36:51;;;;;;;1.52;0.60;;;;;;;25.71;49.53;101306.75;5074502;27;96914;-35
2022/06/30 09:39:19;;;;;;;3.45;1.10;;;;;;;25.93;49.50;101304.22;5076679;27;98101;-35
2022/06/30 09:41:47;;;;;;;4.00;1.15;;;;;;;26.03;49.34;101302.94;5076591;27;99816;-35
2022/06/30 09:44:16;;;;;;;2.55;1.10;;;;;;;26.15;48.68;101306.16;5076494;27;96559;-35
2022/06/30 09:46:58;;;;;;;4.25;1.02;;;;;;;26.29;47.53;101307.25;5076909;27;96899;-35
2022/06/30 09:49:42;;;;;;;3.45;0.80;;;;;;;26.25;48.31;101301.19;5074279;27;101282;-35
2022/06/30 09:52:25;;;;;;;2.60;0.93;;;;;;;26.36;48.52;101310.13;5073082;27;101095;-36
2022/06/30 09:54:57;;;;;;;1.85;0.90;;;;;;;26.41;47.44;101314.09;5075458;27;96788;-35
2022/06/30 09:57:25;;;;;;;2.67;0.95;;;;;;;25.97;47.02;101314.78;5074012;27;96850;-36
2022/06/30 10:00:07;;;;;;;5.25;1.10;;;;;;;26.20;47.91;101306.47;5074274;27;101049;-36
2022/06/30 10:02:44;;;;;;;3.50;1.10;;;;;;;26.47;48.92;101312.47;5074179;27;100822;-36
2022/06/30 10:05:10;;;;;;;1.95;0.85;;;;;;;26.69;47.95;101305.16;5076216;27;96771;-35
2022/06/30 10:07:37;;;;;;;3.60;1.23;;;;;;;26.93;47.21;101308.75;5074925;27;96962;-35
2022/06/30 10:10:04;;;;;;;3.22;1.10;;;;;;;26.90;46.95;101312.75;5074674;27;101516;-35
2022/06/30 10:12:31;;;;;;;1.95;0.90;;;;;;;26.67;47.61;101304.50;5074484;27;102376;-35
2022/06/30 10:14:56;;;;;;;1.67;0.70;;;;;;;26.59;48.27;101308.22;5074427;27;96607;-35
2022/06/30 10:17:28;;;;;;;1.10;0.77;;;;;;;26.57;48.25;101310.31;5076445;27;96747;-35
2022/06/30 10:19:54;;;;;;;3.35;0.88;;;;;;;26.72;47.74;101312.25;5075867;27;97914;-35
2022/06/30 10:22:22;;;;;;;3.20;0.80;;;;;;;26.73;47.40;101305.66;5074211;27;101143;-35
2022/06/30 10:24:49;;;;;;;1.63;0.90;;;;;;;26.68;47.64;101309.00;5074532;27;96684;-35
2022/06/30 10:27:15;;;;;;;1.88;0.90;;;;;;;26.46;47.41;101314.41;5074670;27;96808;-36
2022/06/30 10:30:00;;;;;;;1.70;0.82;;;;;;;26.35;47.64;101316.75;5074251;27;100706;-35
2022/06/30 10:33:05;;;;;;;1.70;0.93;;;;;;;26.38;47.99;101314.44;5074364;27;100681;-36
2022/06/30 10:35:41;;;;;;;1.88;0.80;;;;;;;26.21;48.37;101322.06;5075968;27;96447;-35
2022/06/30 10:38:09;;;;;;;1.85;0.90;;;;;;;26.20;48.35;101317.56;5073858;27;96620;-35
2022/06/30 10:40:53;;;;;;;2.30;1.20;;;;;;;25.84;48.33;101309.81;5075345;27;97428;-36
2022/06/30 10:43:19;;;;;;;1.85;1.08;;;;;;;25.78;48.95;101323.56;5073905;27;100939;-35
2022/06/30 10:45:58;;;;;;;2.60;1.05;;;;;;;25.68;48.66;101315.47;5074459;27;96680;-36
2022/06/30 10:48:24;;;;;;;3.33;0.80;;;;;;;25.39;49.68;101311.44;5076081;27;96806;-35
2022/06/30 10:50:51;;;;;;;1.88;0.98;;;;;;;25.19;49.37;101324.00;5073590;27;101468;-35
2022/06/30 10:53:41;;;;;;;2.53;0.82;;;;;;;25.02;50.26;101318.47;5074067;27;101153;-35
2022/06/30 10:56:07;;;;;;;4.05;0.85;;;;;;;24.93;50.22;101330.66;5075514;27;96782;-35
2022/06/30 10:58:32;;;;;;;5.82;1.00;;;;;;;24.89;50.35;101320.97;5076154;27;96862;-35
2022/06/30 11:01:03;;;;;;;2.22;0.73;;;;;;;24.84;50.29;101330.81;5073907;27;101666;-35
2022/06/30 11:03:40;;;;;;;4.05;0.98;;;;;;;24.82;50.53;101336.56;5073630;27;100999;-35
2022/06/30 11:06:10;;;;;;;1.58;0.80;;;;;;;24.71;50.87;101336.91;5075041;27;96656;-35
2022/06/30 11:08:35;;;;;;;1.75;0.70;;;;;;;24.59;50.54;101333.63;5073462;27;96816;-35
2022/06/30 11:11:19;;;;;;;1.85;0.68;;;;;;;24.45;50.89;101332.38;5075286;27;97816;-35
2022/06/30 11:13:46;;;;;;;3.53;0.60;;;;;;;24.35;51.14;101312.31;5075090;27;97308;-35
2022/06/30 11:16:16;;;;;;;4.35;0.68;;;;;;;24.34;51.47;101313.38;5074135;27;96573;-35
2022/06/30 11:18:42;;;;;;;2.60;0.77;;;;;;;24.32;51.53;101319.09;5074075;27;96745;-35
2022/06/30 11:21:08;;;;;;;2.05;0.98;;;;;;;24.26;51.30;101318.91;5075076;27;97917;-35
2022/06/30 11:23:42;;;;;;;1.48;0.70;;;;;;;24.27;51.44;101321.50;5075473;27;97306;-34
2022/06/30 11:28:53;;;;;;;2.35;0.88;;;;;;;24.23;51.67;101302.66;5075818;27;96518;-33
2022/06/30 11:31:32;;;;;;;0.95;0.65;;;;;;;24.32;50.80;101302.47;5074613;27;98409;-33
2022/06/30 11:34:04;;;;;;;2.10;0.90;;;;;;;24.33;51.62;101298.66;5073083;27;101349;-34
2022/06/30 11:36:30;;;;;;;2.67;1.02;;;;;;;24.23;51.58;101294.34;5073752;27;96707;-34
2022/06/30 11:39:04;;;;;;;4.78;0.90;;;;;;;24.12;51.77;101285.34;5073403;27;96930;-33